createdAt,value
2023-05-03T00:07:14.741Z,53.08
2023-05-03T00:15:37.682Z,53.29
2023-05-03T00:24:01.030Z,53.23
2023-05-03T00:32:24.480Z,53.36
2023-05-03T00:40:54.045Z,53.29
2023-05-03T00:49:18.198Z,53.31
2023-05-03T00:57:41.275Z,53.20
2023-05-03T01:06:22.167Z,53.33
2023-05-03T01:15:03.421Z,53.27
2023-05-03T01:23:41.994Z,53.31
2023-05-03T01:32:13.957Z,53.16
2023-05-03T01:40:50.343Z,53.34
2023-05-03T01:49:13.522Z,53.43
2023-05-03T01:57:36.420Z,53.28
2023-05-03T02:05:59.441Z,53.35
2023-05-03T02:14:25.406Z,53.39
2023-05-03T02:22:48.394Z,53.51
2023-05-03T02:31:11.564Z,53.55
2023-05-03T02:39:37.536Z,53.54
2023-05-03T02:48:00.996Z,53.57
2023-05-03T02:56:27.182Z,53.54
2023-05-03T03:04:50.331Z,53.55
2023-05-03T03:13:15.549Z,53.67
2023-05-03T03:21:38.889Z,53.73
2023-05-03T03:30:02.360Z,53.84
2023-05-03T03:38:29.339Z,53.78
2023-05-03T03:46:54.723Z,53.80
2023-05-03T03:55:19.944Z,53.81
2023-05-03T04:03:48.139Z,53.92
2023-05-03T04:12:11.682Z,53.98
2023-05-03T04:20:37.631Z,54.13
2023-05-03T04:29:04.922Z,53.98
2023-05-03T04:37:29.645Z,54.32
2023-05-03T04:45:54.691Z,54.22
2023-05-03T04:54:20.343Z,54.22
2023-05-03T05:02:46.128Z,54.39
2023-05-03T05:11:11.666Z,54.47
2023-05-03T05:19:36.395Z,54.68
2023-05-03T05:28:00.977Z,54.72
2023-05-03T05:36:25.009Z,54.89
2023-05-03T05:44:48.586Z,54.84
2023-05-03T05:53:11.870Z,54.80
2023-05-03T06:01:42.737Z,54.98
2023-05-03T06:10:07.926Z,55.16
2023-05-03T06:18:32.138Z,55.15
2023-05-03T06:26:59.096Z,55.44
2023-05-03T06:35:24.462Z,55.54
2023-05-03T06:43:47.632Z,55.98
2023-05-03T06:52:11.848Z,55.95
2023-05-03T07:00:36.061Z,55.87
2023-05-03T07:08:59.047Z,56.04
2023-05-03T07:17:23.342Z,56.42
2023-05-03T07:25:46.435Z,56.33
2023-05-03T07:34:09.330Z,56.41
2023-05-03T07:42:33.421Z,56.34
2023-05-03T07:50:56.506Z,56.44
2023-05-03T07:59:19.495Z,56.51
2023-05-03T08:07:42.540Z,56.19
2023-05-03T08:16:07.420Z,56.16
2023-05-03T08:24:30.798Z,56.08
2023-05-03T08:32:54.853Z,56.10
2023-05-03T08:41:32.588Z,56.19
2023-05-03T08:49:56.079Z,56.03
2023-05-03T08:58:19.245Z,56.17
2023-05-03T09:06:42.200Z,56.48
2023-05-03T09:15:06.937Z,56.40
2023-05-03T09:23:32.036Z,56.53
2023-05-03T09:32:06.644Z,56.35
2023-05-03T09:40:29.632Z,56.42
2023-05-03T09:48:55.948Z,56.46
2023-05-03T09:57:19.242Z,56.44
2023-05-03T10:05:52.564Z,56.64
2023-05-03T10:14:17.325Z,56.54
2023-05-03T10:23:06.173Z,56.72
2023-05-03T10:31:48.863Z,56.59
2023-05-03T10:40:14.247Z,56.73
2023-05-03T10:48:37.319Z,56.75
2023-05-03T10:57:00.321Z,56.62
2023-05-03T11:05:27.181Z,56.59
2023-05-03T11:13:55.067Z,56.77
2023-05-03T11:22:19.022Z,56.68
2023-05-03T11:30:41.997Z,56.74
2023-05-03T11:39:06.048Z,56.78
2023-05-03T11:47:29.155Z,56.75
2023-05-03T11:55:54.431Z,56.60
2023-05-03T12:04:19.057Z,56.73
2023-05-03T12:13:01.164Z,56.75
2023-05-03T12:21:43.395Z,56.50
2023-05-03T12:30:10.836Z,56.46
2023-05-03T12:38:37.046Z,56.55
2023-05-03T12:47:01.239Z,56.59
2023-05-03T12:55:27.718Z,56.59
2023-05-03T13:04:14.753Z,56.47
2023-05-03T13:12:39.088Z,56.60
2023-05-03T13:21:02.083Z,56.53
2023-05-03T13:29:25.281Z,56.52
2023-05-03T13:37:48.374Z,56.44
2023-05-03T13:46:13.034Z,56.21
2023-05-03T13:54:37.361Z,56.48
2023-05-03T14:03:01.483Z,56.16
2023-05-03T14:11:25.794Z,56.24
2023-05-03T14:19:49.063Z,56.32
2023-05-03T14:28:12.186Z,56.20
2023-05-03T14:36:38.934Z,56.11
2023-05-03T14:45:02.829Z,55.83
2023-05-03T14:53:26.599Z,55.74
2023-05-03T15:01:53.241Z,55.72
2023-05-03T15:10:17.014Z,55.62
2023-05-03T15:18:40.159Z,55.58
2023-05-03T15:27:03.286Z,55.42
2023-05-03T15:35:26.373Z,55.46
2023-05-03T15:43:49.582Z,55.34
2023-05-03T15:52:12.573Z,55.22
2023-05-03T16:00:38.053Z,55.23
2023-05-03T16:09:01.758Z,55.31
2023-05-03T16:17:25.938Z,55.14
2023-05-03T16:25:49.372Z,55.09
2023-05-03T16:34:12.900Z,55.09
2023-05-03T16:42:37.210Z,54.86
2023-05-03T16:51:01.033Z,54.94
2023-05-03T16:59:24.835Z,54.73
2023-05-03T17:07:47.778Z,54.76
2023-05-03T17:16:15.787Z,54.83
2023-05-03T17:24:38.868Z,54.61
2023-05-03T17:33:01.893Z,54.68
2023-05-03T17:41:24.867Z,54.55
2023-05-03T17:49:47.808Z,54.45
2023-05-03T17:58:10.937Z,54.45
2023-05-03T18:06:34.006Z,54.13
2023-05-03T18:14:59.967Z,54.12
2023-05-03T18:23:22.970Z,54.05
2023-05-03T18:31:46.125Z,53.86
2023-05-03T18:40:09.309Z,53.92
2023-05-03T18:56:55.596Z,53.62
2023-05-03T19:05:18.732Z,53.33
2023-05-03T19:13:45.049Z,53.49
2023-05-03T19:22:08.154Z,53.18
2023-05-03T19:30:31.097Z,53.24
2023-05-03T19:38:55.647Z,53.11
2023-05-03T19:47:19.081Z,52.96
2023-05-03T19:55:42.108Z,52.77
2023-05-03T20:04:05.166Z,53.05
2023-05-03T20:12:29.518Z,52.77
2023-05-03T20:20:52.502Z,52.66
2023-05-03T20:29:15.981Z,52.65
2023-05-03T20:37:39.756Z,52.59
2023-05-03T20:46:02.892Z,52.52
2023-05-03T20:54:25.878Z,52.40
2023-05-03T21:02:54.493Z,52.52
2023-05-03T21:11:19.263Z,52.31
2023-05-03T21:19:42.248Z,52.28
2023-05-03T21:28:05.157Z,52.32
2023-05-03T21:36:28.221Z,52.24
2023-05-03T21:44:51.529Z,52.10
2023-05-03T21:53:15.744Z,52.01
2023-05-03T22:01:38.764Z,52.11
2023-05-03T22:10:02.083Z,51.99
2023-05-03T22:18:28.333Z,52.03
2023-05-03T22:26:51.314Z,51.83
2023-05-03T22:35:15.471Z,51.99
2023-05-03T22:43:38.617Z,51.90
2023-05-03T22:52:04.248Z,52.05
2023-05-03T23:00:27.394Z,51.86
2023-05-03T23:08:50.504Z,51.81
2023-05-03T23:17:14.006Z,51.90
2023-05-03T23:25:36.920Z,51.79
2023-05-03T23:34:00.032Z,51.80
2023-05-03T23:42:23.116Z,51.77
2023-05-03T23:50:46.011Z,51.92
2023-05-03T23:59:09.157Z,51.90
